Honolulu, HI

11:03 AM HST on January 25, 2015 (GMT -1000)
Honolulu International | Change Station
CLOSE
Current Station
Airport
Location: Honolulu,
Elevation: 16 ft
Nearby Weather Stations

Elev 16 ft 21.32 °N, 157.92 °W | Updated 10 minutes ago

Mostly Cloudy
Mostly Cloudy
76 °F
Feels Like 76 °F
N
20
Wind Variable Wind from NNE
Gusts 28 mph

Today
High -- | Low -- °F
--% Chance of Precip.
Yesterday
High -- | Low -- °F
Precip. -- in
7:10 AM 6:17 PM
Waxing Crescent, 35% visible
Pressure 30.05 in
Visibility 10.0 miles
Clouds Few 3200 ft
Scattered Clouds 5500 ft
Mostly Cloudy 6000 ft
Dew Point 62 °F
Humidity 62%
Rainfall 0.00 in
Snow Depth Not available.
UV 3 out of 12
Pollen Not available.
Air Quality Not available.
Flu Activity Not available.
METAR PHNL 252053Z 03017G24KT 10SM FEW032 SCT055 BKN060 24/17 A3005 RMK AO2 SLP175 VCSH NE-E T02440167 50001 $

More Conditions Fewer Conditions

Pressure 30.05 in
Visibility 10.0 miles
Clouds Few 3200 ft
Scattered Clouds 5500 ft
Mostly Cloudy 6000 ft
Dew Point 62 °F
Humidity 62%
Rainfall 0.00 in
Snow Depth Not available.
UV 3 out of 12
Pollen Not available.
Air Quality Not available.
Flu Activity Not available.
METAR PHNL 252053Z 03017G24KT 10SM FEW032 SCT055 BKN060 24/17 A3005 RMK AO2 SLP175 VCSH NE-E T02440167 50001 $

More Conditions Fewer Conditions

10-Day Weather Forecast

Almanac

Astronomy

Jan. 25, 2015 Rise Set
Actual Time
Civil Twilight
Nautical Twilight
Astronomical Twilight
Moon
Length of Visible Light
Length of Day
Tomorrow will be .
, % of the Moon is Illuminated

Today's Extremes

State Highs State Lows

Community

WunderPhotos

Upload Photos

1,790,047 photos uploaded!

WunderBlogs® & News

Nearby

Air Quality

  Air Quality AQ Index Pollutant
Not available.

Snow Depth

Station Depth Elevation

Earthquake Activity

City Distance Mag. Time & Date
Minimum magnitude displayed is 2.5.

Coastal Water Temperatures

Place Temperature

Nearby Weather Stations